createdAt,value
2022-11-01T00:02:13.690Z,18.45
2022-11-01T00:05:05.750Z,16.15
2022-11-01T00:07:41.638Z,17.20
2022-11-01T00:10:13.767Z,18.05
2022-11-01T00:12:53.646Z,16.63
2022-11-01T00:15:32.372Z,16.90
2022-11-01T00:18:02.692Z,18.30
2022-11-01T00:20:31.889Z,19.08
2022-11-01T00:23:04.333Z,19.13
2022-11-01T00:25:37.072Z,16.60
2022-11-01T00:28:05.956Z,21.25
2022-11-01T00:30:49.081Z,16.05
2022-11-01T00:33:19.185Z,15.55
2022-11-01T00:35:49.577Z,21.42
2022-11-01T00:38:22.448Z,16.25
2022-11-01T00:40:51.242Z,20.50
2022-11-01T00:43:20.410Z,16.60
2022-11-01T00:45:52.609Z,16.73
2022-11-01T00:48:23.293Z,15.43
2022-11-01T00:50:55.018Z,13.25
2022-11-01T00:53:29.811Z,16.75
2022-11-01T00:56:03.573Z,16.98
2022-11-01T00:58:33.572Z,15.07
2022-11-01T01:01:04.339Z,15.90
2022-11-01T01:03:41.249Z,14.82
2022-11-01T01:06:11.269Z,15.85
2022-11-01T01:08:40.100Z,14.07
2022-11-01T01:11:11.650Z,15.07
2022-11-01T01:13:41.245Z,13.40
2022-11-01T01:19:11.505Z,14.18
2022-11-01T01:21:46.254Z,14.85
2022-11-01T01:24:16.759Z,14.93
2022-11-01T01:26:45.616Z,11.82
2022-11-01T01:29:17.850Z,13.23
2022-11-01T01:31:55.436Z,15.93
2022-11-01T01:34:28.075Z,14.07
2022-11-01T01:36:56.630Z,14.35
2022-11-01T01:39:25.561Z,16.20
2022-11-01T01:42:00.274Z,12.52
2022-11-01T01:45:20.840Z,13.27
2022-11-01T01:48:00.919Z,13.38
2022-11-01T01:50:37.454Z,13.45
2022-11-01T01:53:10.877Z,12.70
2022-11-01T01:55:49.286Z,14.20
2022-11-01T01:58:25.111Z,14.77
2022-11-01T02:00:56.273Z,12.77
2022-11-01T02:03:31.593Z,14.15
2022-11-01T02:06:07.874Z,10.88
2022-11-01T02:08:41.839Z,12.90
2022-11-01T02:11:19.848Z,14.07
2022-11-01T02:13:48.300Z,12.95
2022-11-01T02:16:48.786Z,14.15
2022-11-01T02:20:09.965Z,11.63
2022-11-01T02:23:08.512Z,15.80
2022-11-01T02:26:08.635Z,10.23
2022-11-01T02:28:55.485Z,11.13
2022-11-01T02:32:11.183Z,10.30
2022-11-01T02:34:46.785Z,13.98
2022-11-01T02:37:20.879Z,10.98
2022-11-01T02:39:55.933Z,10.48
2022-11-01T02:42:32.263Z,12.85
2022-11-01T02:45:09.829Z,10.40
2022-11-01T02:47:41.043Z,11.73
2022-11-01T02:50:15.887Z,10.63
2022-11-01T02:52:46.187Z,10.18
2022-11-01T02:55:31.423Z,8.27
2022-11-01T02:58:03.622Z,10.23
2022-11-01T03:00:39.968Z,13.88
2022-11-01T03:03:22.821Z,7.28
2022-11-01T03:06:22.172Z,7.03
2022-11-01T03:08:55.495Z,5.78
2022-11-01T03:12:06.073Z,6.35
2022-11-01T03:15:05.450Z,5.82
2022-11-01T03:18:03.942Z,6.57
2022-11-01T03:21:15.335Z,10.38
2022-11-01T03:24:15.915Z,4.97
2022-11-01T03:26:57.463Z,5.32
2022-11-01T03:29:33.564Z,4.47
2022-11-01T03:32:10.257Z,6.07
2022-11-01T03:35:01.068Z,2.53
2022-11-01T03:37:34.461Z,5.38
2022-11-01T03:40:10.007Z,4.65
2022-11-01T03:42:42.817Z,5.93
2022-11-01T03:45:15.145Z,4.10
2022-11-01T03:47:47.469Z,7.70
2022-11-01T03:50:23.076Z,4.53
2022-11-01T03:53:07.949Z,5.70
2022-11-01T03:55:40.385Z,4.43
2022-11-01T03:58:16.373Z,4.63
2022-11-01T04:00:48.401Z,6.75
2022-11-01T04:03:23.073Z,7.93
2022-11-01T04:05:54.591Z,10.00
2022-11-01T04:08:28.189Z,5.05
2022-11-01T04:11:04.150Z,6.88
2022-11-01T04:13:37.489Z,6.75
2022-11-01T04:16:27.885Z,5.55
2022-11-01T04:19:16.021Z,7.60
2022-11-01T04:21:44.582Z,6.05
2022-11-01T04:24:23.574Z,6.50
2022-11-01T04:26:55.345Z,7.95
2022-11-01T04:29:24.376Z,9.48
2022-11-01T04:31:52.706Z,9.00
2022-11-01T04:34:37.503Z,8.82
2022-11-01T04:37:07.703Z,7.72
2022-11-01T04:39:37.948Z,5.70
2022-11-01T04:42:07.957Z,9.52
2022-11-01T04:44:38.097Z,7.97
2022-11-01T04:47:09.445Z,9.07
2022-11-01T04:49:43.520Z,9.02
2022-11-01T04:52:13.260Z,8.95
2022-11-01T04:54:43.906Z,9.75
2022-11-01T04:57:23.055Z,8.00
2022-11-01T04:59:54.163Z,8.15
2022-11-01T05:02:24.908Z,12.82
2022-11-01T05:04:54.066Z,9.98
2022-11-01T05:07:26.307Z,8.27
2022-11-01T05:10:01.988Z,8.30
2022-11-01T05:12:34.120Z,9.75
2022-11-01T05:15:07.921Z,10.10
2022-11-01T05:17:36.606Z,11.10
2022-11-01T05:20:05.700Z,10.35
2022-11-01T05:22:35.715Z,11.65
2022-11-01T05:25:11.742Z,12.45
2022-11-01T05:27:43.681Z,11.70
2022-11-01T05:30:15.234Z,8.52
2022-11-01T05:32:44.036Z,6.88
2022-11-01T05:35:18.753Z,11.98
2022-11-01T05:37:49.806Z,11.05
2022-11-01T05:40:18.730Z,9.38
2022-11-01T05:42:52.745Z,12.57
2022-11-01T05:45:25.372Z,7.95
2022-11-01T05:47:54.237Z,9.80
2022-11-01T05:50:23.021Z,13.32
2022-11-01T05:52:54.708Z,12.15
2022-11-01T05:55:25.178Z,10.48
2022-11-01T05:58:12.570Z,16.67
2022-11-01T06:00:51.248Z,14.57
2022-11-01T06:03:29.339Z,12.07
2022-11-01T06:06:17.626Z,12.52
2022-11-01T06:15:56.114Z,10.02
2022-11-01T06:25:27.852Z,14.35
2022-11-01T06:28:01.482Z,14.80
2022-11-01T06:30:35.133Z,15.60
2022-11-01T06:40:56.423Z,14.95
2022-11-01T06:44:02.920Z,15.55
2022-11-01T06:46:35.962Z,14.77
2022-11-01T07:03:06.935Z,15.25
2022-11-01T07:06:06.877Z,12.82
2022-11-01T07:08:40.866Z,16.35
2022-11-01T07:11:31.887Z,17.75
2022-11-01T07:14:28.403Z,15.93
2022-11-01T07:17:27.773Z,14.98
2022-11-01T07:20:58.895Z,12.40
2022-11-01T07:26:35.714Z,17.58
2022-11-01T07:32:06.931Z,12.90
2022-11-01T07:42:19.978Z,14.02
2022-11-01T07:46:04.594Z,15.27
2022-11-01T07:49:21.783Z,13.77
2022-11-01T08:10:00.399Z,19.05
2022-11-01T08:12:31.137Z,17.67
2022-11-01T08:15:04.279Z,17.20
2022-11-01T08:17:44.467Z,17.42
2022-11-01T08:20:16.733Z,13.13
2022-11-01T08:25:21.132Z,17.30
2022-11-01T08:27:54.485Z,17.52
2022-11-01T08:55:44.273Z,15.75
2022-11-01T08:58:28.189Z,14.18
2022-11-01T09:01:39.997Z,14.73
2022-11-01T09:08:13.209Z,13.75
2022-11-01T09:18:36.306Z,17.05
2022-11-01T09:22:22.645Z,14.18
2022-11-01T09:40:20.125Z,12.45
2022-11-01T10:05:47.807Z,19.35
2022-11-01T10:09:12.188Z,13.98
2022-11-01T10:12:25.529Z,14.70
2022-11-01T10:15:17.563Z,15.85
2022-11-01T10:18:01.079Z,14.48
2022-11-01T10:20:38.260Z,15.63
2022-11-01T10:23:13.816Z,14.38
2022-11-01T10:26:02.265Z,13.77
2022-11-01T10:36:28.209Z,12.77
2022-11-01T10:42:39.114Z,15.38
2022-11-01T10:50:49.681Z,14.52
2022-11-01T12:12:31.216Z,8.60
2022-11-01T12:15:07.343Z,11.43
2022-11-01T12:32:49.351Z,11.25
2022-11-01T14:19:25.586Z,9.80
2022-11-01T14:27:37.371Z,16.73
2022-11-01T14:34:09.522Z,10.68
2022-11-01T14:37:41.335Z,10.20
2022-11-01T15:08:47.184Z,7.88
2022-11-01T15:15:52.309Z,9.20
2022-11-01T15:18:23.066Z,10.38
2022-11-01T15:20:56.098Z,10.38
2022-11-01T15:23:34.167Z,10.95
2022-11-01T15:26:07.985Z,11.45
2022-11-01T15:28:42.281Z,12.38
2022-11-01T15:31:11.585Z,8.63
2022-11-01T15:33:54.530Z,9.38
2022-11-01T15:36:28.835Z,10.90
2022-11-01T15:39:03.970Z,12.10
2022-11-01T15:41:35.189Z,8.45
2022-11-01T15:44:09.571Z,9.95
2022-11-01T15:52:29.892Z,13.15
2022-11-01T15:55:06.962Z,10.20
2022-11-01T15:57:45.511Z,15.93
2022-11-01T16:00:25.020Z,9.68
2022-11-01T16:03:07.024Z,10.57
2022-11-01T16:05:45.309Z,12.57
2022-11-01T16:08:29.684Z,10.88
2022-11-01T16:11:04.086Z,19.15
2022-11-01T16:13:33.997Z,14.90
2022-11-01T16:16:05.967Z,15.70
2022-11-01T16:18:40.393Z,9.32
2022-11-01T16:21:28.414Z,12.25
2022-11-01T16:24:09.711Z,12.38
2022-11-01T16:26:56.476Z,13.40
2022-11-01T16:29:51.095Z,12.52
2022-11-01T16:32:27.336Z,8.20
2022-11-01T16:34:56.603Z,10.52
2022-11-01T16:40:54.854Z,10.90
2022-11-01T16:43:34.633Z,12.13
2022-11-01T16:50:01.058Z,10.10
2022-11-01T16:52:31.613Z,8.82
2022-11-01T16:55:20.445Z,8.05
2022-11-01T16:58:25.967Z,11.57
2022-11-01T17:00:59.249Z,9.57
2022-11-01T17:06:50.532Z,11.23
2022-11-01T17:24:12.112Z,15.02
2022-11-01T17:27:34.623Z,10.68
2022-11-01T17:36:17.076Z,13.18
2022-11-01T17:38:46.225Z,10.60
2022-11-01T17:41:21.476Z,13.30
2022-11-01T17:43:50.916Z,11.35
2022-11-01T17:46:26.609Z,9.07
2022-11-01T17:48:55.045Z,13.50
2022-11-01T17:51:30.443Z,13.43
2022-11-01T17:54:02.966Z,10.32
2022-11-01T17:56:33.651Z,10.45
2022-11-01T17:59:02.690Z,14.27
2022-11-01T18:01:31.715Z,10.15
2022-11-01T18:04:01.188Z,10.88
2022-11-01T18:06:30.804Z,12.05
2022-11-01T18:09:05.599Z,18.85
2022-11-01T18:11:50.893Z,11.10
2022-11-01T18:14:28.532Z,14.07
2022-11-01T18:17:02.411Z,12.90
2022-11-01T18:19:47.582Z,11.18
2022-11-01T18:22:29.815Z,12.30
2022-11-01T18:25:07.104Z,12.68
2022-11-01T18:27:39.089Z,10.68
2022-11-01T18:30:15.177Z,11.20
2022-11-01T18:33:04.468Z,14.02
2022-11-01T18:35:40.827Z,11.43
2022-11-01T18:38:25.932Z,9.00
2022-11-01T18:41:01.029Z,10.00
2022-11-01T18:43:33.981Z,10.57
2022-11-01T18:46:23.761Z,10.07
2022-11-01T18:48:59.780Z,15.50
2022-11-01T18:51:31.271Z,10.90
2022-11-01T18:54:24.658Z,14.70
2022-11-01T18:56:57.451Z,11.48
2022-11-01T18:59:36.733Z,11.40
2022-11-01T19:02:16.063Z,15.60
2022-11-01T19:04:46.212Z,11.70
2022-11-01T19:07:19.326Z,14.25
2022-11-01T19:09:55.087Z,10.95
2022-11-01T19:12:34.116Z,13.25
2022-11-01T19:15:24.812Z,9.23
2022-11-01T19:18:11.224Z,15.02
2022-11-01T19:20:54.240Z,12.02
2022-11-01T19:23:41.911Z,12.80
2022-11-01T19:30:09.064Z,12.30
2022-11-01T19:33:04.616Z,12.27
2022-11-01T19:35:34.384Z,11.40
2022-11-01T19:38:04.495Z,14.13
2022-11-01T19:43:17.536Z,12.00
2022-11-01T19:45:50.697Z,10.68
2022-11-01T19:51:40.127Z,12.60
2022-11-01T19:54:13.217Z,17.20
2022-11-01T19:56:44.931Z,15.57
2022-11-01T19:59:17.089Z,10.93
2022-11-01T20:01:46.869Z,15.27
2022-11-01T20:04:27.716Z,12.60
2022-11-01T20:07:01.204Z,12.85
2022-11-01T20:24:15.742Z,14.30
2022-11-01T20:43:26.455Z,11.13
2022-11-01T20:46:00.316Z,9.95
2022-11-01T20:49:53.558Z,12.85
2022-11-01T20:52:52.384Z,8.68
2022-11-01T20:55:28.821Z,10.10
2022-11-01T20:57:59.876Z,10.77
2022-11-01T21:00:28.639Z,12.77
2022-11-01T21:02:59.906Z,10.82
2022-11-01T21:05:38.771Z,8.50
2022-11-01T21:16:35.468Z,7.22
2022-11-01T21:19:10.444Z,8.13
2022-11-01T21:21:49.714Z,10.52
2022-11-01T21:24:34.948Z,8.40
2022-11-01T21:27:25.515Z,7.40
2022-11-01T21:30:01.580Z,9.38
2022-11-01T21:32:44.131Z,11.90
2022-11-01T21:35:40.676Z,10.93
2022-11-01T21:38:46.775Z,6.65
2022-11-01T21:41:36.712Z,9.25
2022-11-01T21:44:24.500Z,7.22
2022-11-01T21:46:59.633Z,7.18
2022-11-01T21:49:35.081Z,7.22
2022-11-01T21:52:06.482Z,7.15
2022-11-01T21:54:37.336Z,6.80
2022-11-01T21:57:08.216Z,5.60
2022-11-01T21:59:37.125Z,5.68
2022-11-01T22:02:07.533Z,6.50
2022-11-01T22:04:37.339Z,8.50
2022-11-01T22:07:08.170Z,7.38
2022-11-01T22:09:36.694Z,5.50
2022-11-01T22:12:06.165Z,4.47
2022-11-01T22:14:34.421Z,3.97
2022-11-01T22:17:02.604Z,6.65
2022-11-01T22:19:30.741Z,4.05
2022-11-01T22:22:00.424Z,7.38
2022-11-01T22:24:28.546Z,5.00
2022-11-01T22:26:56.694Z,4.88
2022-11-01T22:29:24.843Z,6.15
2022-11-01T22:31:52.976Z,4.55
2022-11-01T22:34:21.449Z,7.22
2022-11-01T22:36:50.182Z,5.65
2022-11-01T22:39:23.438Z,6.28
2022-11-01T22:41:51.773Z,7.05
2022-11-01T22:44:26.594Z,6.57
2022-11-01T22:46:58.937Z,7.60
2022-11-01T22:49:30.162Z,7.53
2022-11-01T22:52:03.544Z,7.65
2022-11-01T22:54:40.058Z,10.18
2022-11-01T22:57:17.776Z,7.85
2022-11-01T22:59:59.933Z,9.43
2022-11-01T23:03:35.149Z,8.98
2022-11-01T23:06:18.356Z,9.30
2022-11-01T23:08:47.199Z,7.57
2022-11-01T23:11:45.944Z,6.63
2022-11-01T23:14:36.776Z,8.80
2022-11-01T23:17:22.513Z,10.20
2022-11-01T23:19:58.009Z,8.88
2022-11-01T23:22:31.803Z,9.25
2022-11-01T23:25:00.346Z,10.55
2022-11-01T23:27:30.989Z,10.45
2022-11-01T23:30:02.663Z,11.00
2022-11-01T23:32:31.843Z,10.68
2022-11-01T23:35:12.016Z,12.10
2022-11-01T23:37:40.688Z,9.85
2022-11-01T23:40:16.410Z,10.68
2022-11-01T23:42:46.296Z,9.98
2022-11-01T23:45:29.730Z,11.98
2022-11-01T23:47:58.724Z,10.70
2022-11-01T23:50:31.158Z,11.48
2022-11-01T23:53:02.383Z,11.77
2022-11-01T23:55:33.914Z,13.77
2022-11-01T23:58:06.727Z,11.40
